Time;durP1;ratioP1;P1;durP2;ratioP2;P2;SDS_P1;SDS_P2;PMS_P1;PMS_P2;Temp;Humidity;BMP_temperature;BMP_pressure;BME280_temperature;BME280_humidity;BME280_pressure;Samples;Min_cycle;Max_cycle;Signal;HPM_P1;HPM_P2
2022/02/20 00:00:51;;;;;;;2.33;1.58;;;18.30;54.60;;;;;;5075734;28;20523;-82
2022/02/20 00:03:18;;;;;;;2.25;1.60;;;18.30;54.00;;;;;;5058464;28;20185;-82
2022/02/20 00:05:45;;;;;;;1.40;1.30;;;18.30;54.20;;;;;;5041710;28;20287;-83
2022/02/20 00:08:13;;;;;;;2.28;1.45;;;18.30;53.90;;;;;;5058309;28;20188;-83
2022/02/20 00:10:40;;;;;;;2.03;1.45;;;18.20;53.90;;;;;;5041467;28;20188;-83
2022/02/20 00:13:08;;;;;;;1.98;1.50;;;18.30;54.20;;;;;;5074702;28;20674;-83
2022/02/20 00:15:35;;;;;;;2.25;1.55;;;18.30;54.20;;;;;;5075223;28;20657;-83
2022/02/20 00:18:03;;;;;;;2.22;1.50;;;18.30;54.00;;;;;;5057812;28;20580;-83
2022/02/20 00:20:30;;;;;;;2.08;1.50;;;18.30;54.20;;;;;;5092664;28;20236;-83
2022/02/20 00:22:57;;;;;;;2.83;1.23;;;18.30;54.00;;;;;;5057927;28;20176;-83
2022/02/20 00:25:26;;;;;;;1.75;1.40;;;18.30;54.00;;;;;;5075652;28;20172;-83
2022/02/20 00:27:53;;;;;;;2.05;1.38;;;18.20;54.20;;;;;;5041774;28;20180;-84
2022/02/20 00:30:21;;;;;;;2.08;1.45;;;18.30;54.10;;;;;;5058741;28;20196;-84
2022/02/20 00:32:47;;;;;;;2.53;1.42;;;18.20;54.10;;;;;;5043482;28;20298;-84
2022/02/20 00:35:14;;;;;;;2.22;1.50;;;18.20;54.20;;;;;;5066174;28;20619;-83
2022/02/20 00:37:41;;;;;;;1.20;1.10;;;18.20;54.20;;;;;;5049239;28;20180;-84
2022/02/20 00:40:09;;;;;;;1.40;1.30;;;18.20;54.10;;;;;;5082269;28;20193;-84
2022/02/20 00:42:37;;;;;;;1.42;1.33;;;18.20;54.20;;;;;;5066105;28;20238;-83
2022/02/20 00:45:04;;;;;;;1.88;1.25;;;18.30;54.90;;;;;;5045311;28;20173;-83
2022/02/20 00:47:29;;;;;;;1.45;1.35;;;18.20;54.20;;;;;;5062697;28;20188;-83
2022/02/20 00:49:56;;;;;;;1.42;1.15;;;18.20;54.10;;;;;;5080624;28;20615;-83
2022/02/20 00:52:24;;;;;;;1.50;1.40;;;18.20;54.30;;;;;;5061164;28;20185;-83
2022/02/20 00:54:51;;;;;;;1.65;1.50;;;18.20;54.30;;;;;;5058980;28;20316;-83
2022/02/20 00:57:21;;;;;;;1.75;1.58;;;18.10;54.30;;;;;;5044950;28;20665;-83
2022/02/20 00:59:52;;;;;;;1.50;1.30;;;18.20;54.30;;;;;;5061992;28;20188;-83
2022/02/20 01:02:21;;;;;;;2.10;1.58;;;18.10;54.40;;;;;;5046007;28;20184;-83
2022/02/20 01:04:49;;;;;;;2.35;1.52;;;18.10;54.20;;;;;;5061459;28;20531;-83
2022/02/20 01:07:18;;;;;;;1.48;1.33;;;18.20;54.40;;;;;;5061683;28;20194;-83
2022/02/20 01:09:46;;;;;;;1.75;1.50;;;18.10;54.20;;;;;;5061760;28;20207;-83
2022/02/20 01:12:16;;;;;;;2.17;1.40;;;18.10;54.30;;;;;;5078206;28;20188;-83
2022/02/20 01:14:44;;;;;;;1.67;1.38;;;18.20;54.20;;;;;;5061871;28;20218;-83
2022/02/20 01:17:10;;;;;;;1.48;1.33;;;18.10;54.40;;;;;;5045025;28;20208;-83
2022/02/20 01:19:37;;;;;;;2.47;1.50;;;18.10;54.30;;;;;;5062136;28;20219;-83
2022/02/20 01:22:03;;;;;;;1.33;1.23;;;18.10;54.30;;;;;;5078785;28;20164;-83
2022/02/20 01:24:30;;;;;;;1.48;1.20;;;18.10;54.50;;;;;;5079014;28;20196;-83
2022/02/20 01:26:58;;;;;;;1.60;1.50;;;18.00;54.20;;;;;;5061198;28;20180;-82
2022/02/20 01:29:25;;;;;;;1.40;1.30;;;18.10;54.30;;;;;;5044768;28;20184;-83
2022/02/20 01:31:53;;;;;;;1.88;1.42;;;18.10;54.30;;;;;;5060991;28;20184;-83
2022/02/20 01:34:21;;;;;;;1.63;1.23;;;18.10;54.50;;;;;;5041997;28;20250;-83
2022/02/20 01:36:49;;;;;;;1.20;1.10;;;18.10;54.40;;;;;;5044640;28;20316;-83
2022/02/20 01:39:16;;;;;;;1.77;1.40;;;18.10;54.40;;;;;;5077805;28;20259;-83
2022/02/20 01:41:44;;;;;;;2.30;1.40;;;18.20;54.30;;;;;;5061039;28;20184;-83
2022/02/20 01:44:11;;;;;;;2.15;1.40;;;18.10;54.30;;;;;;5061097;28;20192;-83
2022/02/20 01:46:38;;;;;;;1.38;1.25;;;18.00;54.10;;;;;;5044247;28;20180;-83
2022/02/20 01:49:05;;;;;;;1.45;1.30;;;18.10;54.20;;;;;;5044013;28;20189;-83
2022/02/20 01:51:32;;;;;;;1.80;1.27;;;18.10;54.50;;;;;;5044104;28;20650;-83
2022/02/20 01:53:59;;;;;;;1.60;1.40;;;18.10;54.40;;;;;;5060647;28;20709;-83
2022/02/20 01:56:25;;;;;;;1.25;1.10;;;18.10;54.40;;;;;;5043926;28;20207;-83
2022/02/20 01:58:51;;;;;;;1.85;1.40;;;18.10;54.30;;;;;;5078051;28;20195;-83
2022/02/20 02:01:16;;;;;;;1.42;1.33;;;18.10;54.50;;;;;;5061251;28;20187;-83
2022/02/20 02:03:43;;;;;;;1.48;1.38;;;18.10;54.40;;;;;;5078161;28;20640;-83
2022/02/20 02:06:08;;;;;;;1.98;1.67;;;18.00;54.30;;;;;;5060102;28;20184;-83
2022/02/20 02:08:35;;;;;;;1.40;1.30;;;18.00;54.60;;;;;;5061221;28;20540;-83
2022/02/20 02:11:01;;;;;;;2.22;1.40;;;18.00;54.50;;;;;;5061321;28;20173;-83
2022/02/20 02:13:27;;;;;;;1.80;1.25;;;18.00;54.60;;;;;;5061309;28;20195;-83
2022/02/20 02:15:53;;;;;;;2.33;1.30;;;18.00;54.60;;;;;;5061206;28;20562;-83
2022/02/20 02:18:19;;;;;;;2.83;1.60;;;18.10;54.30;;;;;;5077785;28;20517;-83
2022/02/20 02:20:44;;;;;;;1.38;1.25;;;18.00;54.70;;;;;;5061042;28;20157;-83
2022/02/20 02:23:10;;;;;;;2.55;1.52;;;18.00;54.70;;;;;;5078038;28;20162;-83
2022/02/20 02:25:36;;;;;;;1.40;1.30;;;18.00;54.70;;;;;;5077472;28;20244;-83
2022/02/20 02:28:02;;;;;;;1.65;1.40;;;18.00;54.40;;;;;;5077933;28;20192;-83
2022/02/20 02:30:28;;;;;;;1.58;1.20;;;18.00;54.40;;;;;;5062027;28;20204;-83
2022/02/20 02:32:53;;;;;;;2.45;1.42;;;18.00;54.50;;;;;;5102058;28;20161;-82
2022/02/20 02:35:20;;;;;;;2.20;1.40;;;18.00;54.50;;;;;;5103321;28;20192;-83
2022/02/20 02:37:46;;;;;;;2.15;1.40;;;18.00;54.60;;;;;;5102190;28;20164;-83
2022/02/20 02:40:12;;;;;;;1.50;1.20;;;17.90;54.50;;;;;;5082762;28;20160;-83
2022/02/20 02:42:38;;;;;;;1.42;1.30;;;18.00;54.50;;;;;;5064330;28;20164;-83
2022/02/20 02:45:05;;;;;;;1.90;1.38;;;18.00;54.20;;;;;;5081831;28;20164;-83
2022/02/20 02:47:31;;;;;;;1.85;1.25;;;18.00;54.70;;;;;;5081051;28;20163;-83
2022/02/20 02:49:57;;;;;;;1.95;1.35;;;18.00;54.60;;;;;;5063767;28;20164;-82
2022/02/20 02:52:25;;;;;;;1.63;1.35;;;18.00;54.70;;;;;;5080780;28;20595;-83
2022/02/20 02:54:53;;;;;;;2.00;1.30;;;18.00;54.60;;;;;;5062990;28;20637;-83
2022/02/20 02:57:21;;;;;;;1.77;1.40;;;18.00;54.50;;;;;;5063079;28;20638;-83
2022/02/20 02:59:46;;;;;;;2.45;1.35;;;17.90;54.60;;;;;;5046345;28;20579;-83
2022/02/20 03:02:12;;;;;;;1.52;1.25;;;17.90;54.60;;;;;;5097188;28;20670;-83
2022/02/20 03:04:38;;;;;;;1.90;1.35;;;17.90;54.60;;;;;;5080482;28;20618;-83
2022/02/20 03:07:03;;;;;;;1.48;1.20;;;17.90;54.70;;;;;;5080053;28;20168;-82
2022/02/20 03:09:29;;;;;;;1.98;1.20;;;17.90;54.80;;;;;;5063297;28;20172;-83
2022/02/20 03:11:55;;;;;;;1.25;1.15;;;17.90;54.50;;;;;;5080299;28;20167;-83
2022/02/20 03:14:23;;;;;;;1.38;1.20;;;18.00;54.70;;;;;;5096838;28;20188;-83
2022/02/20 03:16:50;;;;;;;3.05;1.50;;;17.90;54.40;;;;;;5045805;28;20180;-83
2022/02/20 03:19:17;;;;;;;1.30;1.20;;;18.00;54.60;;;;;;5062070;28;20650;-83
2022/02/20 03:21:45;;;;;;;1.52;1.05;;;17.90;54.40;;;;;;5062720;28;20645;-83
2022/02/20 03:24:10;;;;;;;2.22;1.40;;;17.90;54.60;;;;;;5079094;28;20194;-83
2022/02/20 03:26:36;;;;;;;1.40;1.20;;;17.90;54.50;;;;;;5096586;28;20148;-83
2022/02/20 03:29:02;;;;;;;1.20;1.10;;;17.90;54.50;;;;;;5096887;28;20156;-83
2022/02/20 03:31:27;;;;;;;1.88;1.33;;;17.90;54.50;;;;;;5096565;28;20175;-82
2022/02/20 03:33:53;;;;;;;1.77;1.45;;;18.00;54.60;;;;;;5076124;28;20217;-83
2022/02/20 03:36:18;;;;;;;1.38;1.13;;;17.90;54.70;;;;;;5076116;28;20161;-83
2022/02/20 03:38:44;;;;;;;1.20;1.10;;;17.90;54.60;;;;;;5059986;28;20217;-83
2022/02/20 03:41:10;;;;;;;1.25;1.15;;;17.90;54.40;;;;;;5060166;28;20261;-83
2022/02/20 03:43:35;;;;;;;1.30;1.17;;;17.90;54.70;;;;;;5059476;28;20169;-83
2022/02/20 03:46:02;;;;;;;1.58;1.38;;;18.00;54.70;;;;;;5059604;28;20179;-82
2022/02/20 03:48:29;;;;;;;1.25;1.15;;;17.90;54.70;;;;;;5075526;28;20184;-82
2022/02/20 03:50:55;;;;;;;1.35;1.20;;;17.90;54.30;;;;;;5058677;28;20364;-82
2022/02/20 03:53:22;;;;;;;1.27;1.17;;;17.90;54.80;;;;;;5076021;28;20646;-82
2022/02/20 03:55:47;;;;;;;1.30;1.20;;;17.90;54.70;;;;;;5092796;28;20567;-82
2022/02/20 03:58:13;;;;;;;2.03;1.20;;;17.90;54.80;;;;;;5075937;28;20161;-82
2022/02/20 04:00:38;;;;;;;1.55;1.30;;;17.90;54.80;;;;;;5075797;28;20255;-82
2022/02/20 04:03:04;;;;;;;1.80;1.30;;;17.90;54.80;;;;;;5075907;28;20219;-82
2022/02/20 04:05:30;;;;;;;1.23;1.13;;;17.90;54.80;;;;;;5075958;28;20156;-82
2022/02/20 04:07:55;;;;;;;2.30;1.40;;;17.90;54.70;;;;;;5075676;28;20605;-82
2022/02/20 04:10:21;;;;;;;1.70;1.33;;;17.90;54.80;;;;;;5059388;28;20245;-83
2022/02/20 04:12:47;;;;;;;1.38;1.25;;;17.80;54.80;;;;;;5075643;28;20153;-82
2022/02/20 04:15:12;;;;;;;1.55;1.20;;;17.90;55.00;;;;;;5059312;28;20256;-82
2022/02/20 04:17:40;;;;;;;2.00;1.30;;;17.80;54.90;;;;;;5075758;28;20161;-83
2022/02/20 04:20:07;;;;;;;1.40;1.20;;;17.90;54.80;;;;;;5075819;28;20178;-82
2022/02/20 04:22:32;;;;;;;2.55;1.20;;;17.80;55.30;;;;;;5075564;28;20168;-82
2022/02/20 04:24:59;;;;;;;1.90;1.50;;;17.80;54.70;;;;;;5058740;28;20173;-82
2022/02/20 04:27:24;;;;;;;1.20;1.10;;;17.80;54.60;;;;;;5075406;28;20219;-82
2022/02/20 04:29:50;;;;;;;1.42;1.33;;;17.80;54.80;;;;;;5075150;28;20588;-82
2022/02/20 04:32:18;;;;;;;2.70;1.20;;;17.80;54.80;;;;;;5092327;28;20156;-82
2022/02/20 04:34:45;;;;;;;1.75;1.23;;;17.80;54.80;;;;;;5040967;28;20310;-82
2022/02/20 04:37:13;;;;;;;1.33;1.13;;;17.80;54.90;;;;;;5074795;28;20176;-82
2022/02/20 04:39:41;;;;;;;1.67;1.30;;;17.80;54.90;;;;;;5041387;28;20176;-82
2022/02/20 04:42:06;;;;;;;2.55;1.10;;;17.80;55.00;;;;;;5058049;28;20191;-82
2022/02/20 04:44:32;;;;;;;1.60;1.30;;;17.80;55.10;;;;;;5092156;28;20194;-84
2022/02/20 04:46:58;;;;;;;1.80;1.27;;;17.80;55.00;;;;;;5092376;28;20176;-82
2022/02/20 04:49:23;;;;;;;1.80;1.23;;;17.80;54.80;;;;;;5092165;28;20217;-82
2022/02/20 04:51:49;;;;;;;2.53;1.10;;;17.80;54.70;;;;;;5075383;28;20646;-82
2022/02/20 04:54:15;;;;;;;1.33;1.20;;;17.80;55.00;;;;;;5058467;28;20184;-83
2022/02/20 04:56:42;;;;;;;1.67;1.20;;;17.80;55.00;;;;;;5058863;28;20157;-82
2022/02/20 04:59:10;;;;;;;1.63;1.33;;;17.80;54.80;;;;;;5059097;28;20294;-82
2022/02/20 05:01:37;;;;;;;1.70;1.27;;;17.80;54.70;;;;;;5075543;28;20164;-82
2022/02/20 05:04:03;;;;;;;1.40;1.30;;;17.80;54.80;;;;;;5075141;28;20153;-83
2022/02/20 05:06:29;;;;;;;1.35;1.15;;;17.80;55.00;;;;;;5041038;28;20185;-82
2022/02/20 05:08:55;;;;;;;1.63;1.30;;;17.80;55.00;;;;;;5091917;28;20165;-83
2022/02/20 05:11:21;;;;;;;1.20;1.10;;;17.80;54.80;;;;;;5075072;28;20172;-82
2022/02/20 05:13:48;;;;;;;1.40;1.30;;;17.80;54.90;;;;;;5058107;28;20185;-82
2022/02/20 05:16:16;;;;;;;1.25;1.10;;;17.70;54.90;;;;;;5074322;28;20199;-83
2022/02/20 05:18:44;;;;;;;1.42;1.05;;;17.80;55.00;;;;;;5040961;28;20179;-82
2022/02/20 05:21:10;;;;;;;2.38;1.27;;;17.80;54.90;;;;;;5074246;28;20188;-82
2022/02/20 05:23:35;;;;;;;1.80;1.50;;;17.70;54.90;;;;;;5074855;28;20165;-83
2022/02/20 05:26:01;;;;;;;1.42;1.15;;;17.70;55.00;;;;;;5058062;28;20161;-82
2022/02/20 05:28:27;;;;;;;1.48;1.27;;;17.70;55.00;;;;;;5074938;28;20181;-82
2022/02/20 05:30:52;;;;;;;2.13;1.15;;;17.70;54.90;;;;;;5058134;28;20578;-82
2022/02/20 05:33:18;;;;;;;1.88;1.30;;;17.80;55.00;;;;;;5074660;28;20690;-82
2022/02/20 05:35:46;;;;;;;1.38;1.27;;;17.70;55.10;;;;;;5091515;28;20235;-82
2022/02/20 05:38:13;;;;;;;2.10;1.45;;;17.70;55.10;;;;;;5040843;28;20207;-82
2022/02/20 05:40:40;;;;;;;1.65;1.20;;;17.70;55.10;;;;;;5058026;28;20237;-82
2022/02/20 05:43:08;;;;;;;2.17;1.27;;;17.70;54.90;;;;;;5044385;28;20662;-83
2022/02/20 05:45:35;;;;;;;2.00;1.00;;;17.70;55.10;;;;;;5044368;28;20184;-83
2022/02/20 05:48:03;;;;;;;1.27;1.17;;;17.80;54.80;;;;;;5060801;28;20181;-82
2022/02/20 05:50:31;;;;;;;1.20;1.10;;;17.80;54.90;;;;;;5044585;28;20271;-82
2022/02/20 05:52:56;;;;;;;1.63;1.20;;;17.70;55.00;;;;;;5060521;28;20262;-82
2022/02/20 05:55:24;;;;;;;1.30;1.20;;;17.80;54.80;;;;;;5095036;28;20208;-82
2022/02/20 05:57:51;;;;;;;1.60;1.50;;;17.80;55.00;;;;;;5060813;28;20179;-83
2022/02/20 06:00:21;;;;;;;1.50;1.15;;;17.70;55.10;;;;;;5043852;28;20674;-83
2022/02/20 06:02:48;;;;;;;1.88;1.45;;;17.70;54.90;;;;;;5044836;28;20207;-83
2022/02/20 06:05:14;;;;;;;2.47;1.40;;;17.80;55.00;;;;;;5094964;28;20151;-83
2022/02/20 06:07:40;;;;;;;1.55;1.15;;;17.80;55.10;;;;;;5094678;28;20210;-83
2022/02/20 06:10:06;;;;;;;1.45;1.30;;;17.70;54.90;;;;;;5060765;28;20168;-83
2022/02/20 06:12:32;;;;;;;1.55;1.38;;;17.70;54.80;;;;;;5094815;28;20169;-83
2022/02/20 06:14:58;;;;;;;1.40;1.27;;;17.70;55.10;;;;;;5077839;28;20250;-83
2022/02/20 06:17:24;;;;;;;1.23;1.13;;;17.70;55.00;;;;;;5094615;28;20203;-83
2022/02/20 06:19:50;;;;;;;1.27;1.17;;;17.70;54.80;;;;;;5077560;28;20181;-83
2022/02/20 06:22:16;;;;;;;1.33;1.10;;;17.70;55.00;;;;;;5094556;28;20141;-83
2022/02/20 06:24:41;;;;;;;1.52;1.20;;;17.70;54.90;;;;;;5094589;28;20157;-83
2022/02/20 06:27:07;;;;;;;1.30;1.20;;;17.70;55.00;;;;;;5060760;28;20229;-83
2022/02/20 06:29:33;;;;;;;1.13;1.02;;;17.70;54.90;;;;;;5077769;28;20177;-83
2022/02/20 06:31:59;;;;;;;2.00;1.13;;;17.70;54.70;;;;;;5077676;28;20515;-83
2022/02/20 06:34:24;;;;;;;2.33;1.00;;;17.70;54.80;;;;;;5077253;28;20633;-83
2022/02/20 06:36:50;;;;;;;1.35;1.20;;;17.70;54.90;;;;;;5077382;28;20244;-83
2022/02/20 06:39:16;;;;;;;1.25;1.10;;;17.70;54.90;;;;;;5077584;28;20149;-83
2022/02/20 06:41:42;;;;;;;1.40;1.20;;;17.70;54.90;;;;;;5060823;28;20164;-82
2022/02/20 06:44:08;;;;;;;1.52;1.23;;;17.70;54.90;;;;;;5095959;28;20164;-83
2022/02/20 06:46:34;;;;;;;1.55;1.00;;;17.70;55.10;;;;;;5095967;28;20180;-83
2022/02/20 06:49:00;;;;;;;1.48;1.15;;;17.80;54.60;;;;;;5063642;28;20260;-82
2022/02/20 06:51:29;;;;;;;1.23;1.08;;;17.70;55.10;;;;;;5066676;28;20205;-84
2022/02/20 06:53:57;;;;;;;1.50;1.17;;;17.70;54.90;;;;;;5050866;28;20212;-83
2022/02/20 06:56:23;;;;;;;1.92;1.30;;;17.70;54.90;;;;;;5052018;28;20208;-83
2022/02/20 06:58:49;;;;;;;1.30;1.15;;;17.60;54.90;;;;;;5102694;28;20175;-84
2022/02/20 07:01:14;;;;;;;1.83;1.13;;;17.70;55.00;;;;;;5100749;28;20182;-83
2022/02/20 07:03:40;;;;;;;1.20;1.10;;;17.70;54.80;;;;;;5083145;28;20156;-82
2022/02/20 07:06:07;;;;;;;1.08;1.00;;;17.70;54.90;;;;;;5100464;28;20191;-83
2022/02/20 07:08:33;;;;;;;1.25;1.10;;;17.80;55.40;;;;;;5101450;28;20161;-84
2022/02/20 07:10:59;;;;;;;1.23;1.10;;;17.70;55.10;;;;;;5093955;28;20163;-83
2022/02/20 07:13:24;;;;;;;1.35;1.25;;;17.70;55.20;;;;;;5078016;28;20219;-81
2022/02/20 07:15:50;;;;;;;1.15;1.02;;;17.70;55.00;;;;;;5098555;28;20208;-82
2022/02/20 07:18:16;;;;;;;1.50;1.23;;;17.70;55.00;;;;;;5081875;28;20161;-81
2022/02/20 07:20:42;;;;;;;1.50;1.20;;;17.70;55.10;;;;;;5079911;28;20214;-82
2022/02/20 07:23:08;;;;;;;1.10;1.00;;;17.70;55.10;;;;;;5078819;28;20195;-82
2022/02/20 07:25:46;;;;;;;1.50;1.40;;;17.70;55.10;;;;;;5078273;28;20152;-83
2022/02/20 07:28:12;;;;;;;1.50;1.10;;;17.70;54.90;;;;;;5057744;28;20184;-82
2022/02/20 07:30:38;;;;;;;1.33;1.17;;;17.80;55.20;;;;;;5073514;28;20170;-82
2022/02/20 07:33:05;;;;;;;1.88;1.13;;;17.70;55.10;;;;;;5073106;28;20335;-83
2022/02/20 07:35:37;;;;;;;2.03;1.30;;;17.70;55.10;;;;;;5073168;28;20156;-83
2022/02/20 07:38:07;;;;;;;1.33;1.20;;;17.70;55.20;;;;;;5055856;28;20184;-83
2022/02/20 07:40:36;;;;;;;1.58;1.42;;;17.70;55.90;;;;;;5038856;28;20268;-83
2022/02/20 07:43:02;;;;;;;1.25;1.00;;;17.70;55.30;;;;;;5038799;28;20184;-83
2022/02/20 07:45:29;;;;;;;1.20;1.10;;;17.70;55.00;;;;;;5056023;28;20252;-83
2022/02/20 07:47:59;;;;;;;1.42;1.33;;;17.70;55.10;;;;;;5072592;28;20213;-84
2022/02/20 07:50:30;;;;;;;1.63;1.20;;;17.70;54.80;;;;;;5076921;28;20551;-83
2022/02/20 07:52:55;;;;;;;1.85;1.13;;;17.80;54.30;;;;;;5042698;28;20264;-83
2022/02/20 07:55:23;;;;;;;1.75;0.85;;;17.80;54.50;;;;;;5076184;28;20555;-83
2022/02/20 07:57:49;;;;;;;2.42;1.20;;;17.80;54.40;;;;;;5059110;28;20192;-83
2022/02/20 08:00:17;;;;;;;1.63;1.42;;;17.90;54.20;;;;;;5060496;28;20207;-83
2022/02/20 08:02:45;;;;;;;3.63;1.20;;;18.00;53.90;;;;;;5076767;28;20171;-83
2022/02/20 08:05:14;;;;;;;1.20;1.10;;;18.10;52.80;;;;;;5059486;28;20196;-85
2022/02/20 08:07:42;;;;;;;2.45;1.20;;;18.20;52.50;;;;;;5059329;28;20283;-83
2022/02/20 08:10:12;;;;;;;1.98;1.13;;;18.20;53.10;;;;;;5058791;28;20188;-83
2022/02/20 08:12:40;;;;;;;1.25;1.15;;;18.20;53.20;;;;;;5059034;28;20184;-83
2022/02/20 08:15:06;;;;;;;1.73;1.13;;;18.20;52.70;;;;;;5038335;28;20217;-84
2022/02/20 08:17:32;;;;;;;1.83;1.23;;;18.30;52.80;;;;;;5073341;28;20157;-85
2022/02/20 08:19:58;;;;;;;1.63;1.30;;;18.30;52.50;;;;;;5072777;28;20167;-84
2022/02/20 08:22:27;;;;;;;2.58;1.20;;;18.40;52.30;;;;;;5081215;28;20184;-86
2022/02/20 08:24:53;;;;;;;3.65;1.40;;;18.40;53.30;;;;;;5075783;28;20192;-83
2022/02/20 08:27:21;;;;;;;1.65;1.38;;;18.40;52.80;;;;;;5093258;28;20160;-84
2022/02/20 08:29:49;;;;;;;2.85;1.40;;;18.40;52.30;;;;;;5045861;28;20180;-84
2022/02/20 08:32:16;;;;;;;1.42;1.30;;;18.40;52.60;;;;;;5061026;28;20180;-84
2022/02/20 08:34:43;;;;;;;1.30;1.20;;;18.40;52.80;;;;;;5113470;28;20690;-85
2022/02/20 08:37:09;;;;;;;2.92;1.30;;;18.50;52.30;;;;;;5046096;28;20210;-84
2022/02/20 08:39:35;;;;;;;5.35;1.40;;;18.50;52.10;;;;;;5080596;28;20163;-83
2022/02/20 08:42:00;;;;;;;1.67;1.15;;;18.50;52.30;;;;;;5080102;28;20670;-85
2022/02/20 08:44:26;;;;;;;2.05;1.10;;;18.50;51.70;;;;;;5096714;28;20160;-85
2022/02/20 08:46:52;;;;;;;1.40;1.20;;;18.60;52.10;;;;;;5081117;28;20167;-85
2022/02/20 08:49:17;;;;;;;3.17;1.30;;;18.60;52.30;;;;;;5066865;28;20166;-85
2022/02/20 08:51:44;;;;;;;3.97;1.20;;;18.60;52.10;;;;;;5082099;28;20356;-84
2022/02/20 08:54:10;;;;;;;2.20;1.15;;;18.70;51.70;;;;;;5061529;28;20269;-84
2022/02/20 08:56:35;;;;;;;5.43;1.40;;;18.70;51.50;;;;;;5079558;28;20164;-85
2022/02/20 08:59:03;;;;;;;5.07;1.38;;;18.70;52.60;;;;;;5079022;28;20149;-84
2022/02/20 09:01:31;;;;;;;3.40;1.40;;;18.70;51.80;;;;;;5095594;28;20284;-85
2022/02/20 09:04:04;;;;;;;3.53;1.50;;;18.80;51.90;;;;;;5080033;28;20184;-86
2022/02/20 09:06:32;;;;;;;3.53;1.63;;;18.70;52.30;;;;;;5078488;28;20194;-83
2022/02/20 09:08:58;;;;;;;12.52;1.70;;;18.70;52.10;;;;;;5062562;28;20267;-85
2022/02/20 09:11:24;;;;;;;6.72;1.55;;;18.70;52.10;;;;;;5080972;28;20253;-84
2022/02/20 09:13:49;;;;;;;5.00;1.42;;;18.70;51.60;;;;;;5097451;28;20191;-86
2022/02/20 09:16:15;;;;;;;3.75;1.20;;;18.80;51.30;;;;;;5061253;28;20169;-84
2022/02/20 09:18:42;;;;;;;5.45;1.52;;;18.70;51.60;;;;;;5097551;28;20232;-81
2022/02/20 09:21:09;;;;;;;4.10;1.42;;;18.70;51.30;;;;;;5080356;28;20157;-83
2022/02/20 09:23:37;;;;;;;4.53;1.38;;;18.70;51.60;;;;;;5079373;28;20157;-82
2022/02/20 09:26:05;;;;;;;4.88;1.70;;;18.70;51.40;;;;;;5062996;28;20212;-82
2022/02/20 09:28:32;;;;;;;3.63;1.30;;;18.70;51.60;;;;;;5049363;28;20622;-82
2022/02/20 09:31:00;;;;;;;3.22;1.30;;;18.70;51.30;;;;;;5083879;28;20187;-83
2022/02/20 09:33:25;;;;;;;4.97;1.55;;;18.80;51.40;;;;;;5062861;28;20274;-82
2022/02/20 09:35:51;;;;;;;3.05;1.40;;;18.80;51.50;;;;;;5098853;28;20168;-83
2022/02/20 09:38:17;;;;;;;2.67;1.15;;;18.80;51.40;;;;;;5080148;28;20157;-84
2022/02/20 09:40:43;;;;;;;8.15;1.40;;;18.70;51.80;;;;;;5079394;28;20175;-83
2022/02/20 09:43:11;;;;;;;2.47;1.30;;;18.80;51.50;;;;;;5064903;28;20280;-83
2022/02/20 09:45:37;;;;;;;2.10;1.25;;;18.70;51.30;;;;;;5068979;28;20173;-83
2022/02/20 09:48:03;;;;;;;4.97;1.40;;;18.80;51.00;;;;;;5080434;28;20235;-83
2022/02/20 09:50:29;;;;;;;6.20;1.10;;;18.80;51.00;;;;;;5079681;28;20191;-83
2022/02/20 09:52:56;;;;;;;7.28;1.30;;;18.80;50.70;;;;;;5062376;28;20183;-86
2022/02/20 09:55:24;;;;;;;3.47;1.30;;;18.90;51.00;;;;;;5076397;28;20192;-85
2022/02/20 09:57:51;;;;;;;2.58;1.30;;;18.90;51.00;;;;;;5080930;28;20630;-81
2022/02/20 10:00:18;;;;;;;5.57;1.50;;;18.90;51.20;;;;;;5079191;28;20169;-84
2022/02/20 10:02:44;;;;;;;4.88;1.63;;;18.80;51.40;;;;;;5097258;28;20244;-84
2022/02/20 10:05:19;;;;;;;3.55;1.42;;;18.80;51.40;;;;;;5081580;28;20515;-84
2022/02/20 10:07:50;;;;;;;9.35;1.80;;;18.80;51.80;;;;;;5078700;28;20545;-84
2022/02/20 10:10:21;;;;;;;5.10;1.55;;;18.80;51.60;;;;;;5045703;28;20181;-84
2022/02/20 10:12:59;;;;;;;4.47;1.40;;;18.90;51.50;;;;;;5045433;28;20188;-83
2022/02/20 10:15:31;;;;;;;4.30;1.60;;;18.80;50.80;;;;;;5061656;28;20184;-83
2022/02/20 10:18:08;;;;;;;5.20;1.40;;;18.80;50.70;;;;;;5045503;28;20183;-83
2022/02/20 10:20:34;;;;;;;5.20;1.50;;;18.80;50.90;;;;;;5047275;28;20176;-85
2022/02/20 10:23:03;;;;;;;3.85;1.38;;;18.80;50.90;;;;;;5096996;28;20235;-83
2022/02/20 10:25:29;;;;;;;4.25;1.35;;;18.80;50.80;;;;;;5095112;28;20264;-83
2022/02/20 10:27:57;;;;;;;3.60;1.55;;;18.80;50.50;;;;;;5078180;28;20200;-83
2022/02/20 10:30:27;;;;;;;5.07;1.35;;;18.80;50.70;;;;;;5077646;28;20187;-84
2022/02/20 10:33:16;;;;;;;6.97;1.30;;;18.70;50.70;;;;;;5063844;28;20701;-83
2022/02/20 10:35:45;;;;;;;3.75;1.38;;;18.80;50.70;;;;;;5116999;28;20160;-83
2022/02/20 10:38:13;;;;;;;3.03;1.40;;;18.80;51.20;;;;;;5049689;28;20203;-83
2022/02/20 10:40:39;;;;;;;2.45;1.35;;;18.80;50.50;;;;;;5099126;28;20546;-84
2022/02/20 10:43:08;;;;;;;2.47;1.30;;;18.80;50.50;;;;;;5082363;28;20152;-84
2022/02/20 10:45:35;;;;;;;2.67;1.33;;;18.80;51.00;;;;;;5064299;28;20183;-84
2022/02/20 10:48:02;;;;;;;4.43;1.20;;;18.80;50.90;;;;;;5099215;28;20151;-84
2022/02/20 10:50:29;;;;;;;2.20;1.40;;;18.70;50.70;;;;;;5065528;28;20165;-84
2022/02/20 10:53:13;;;;;;;2.90;1.55;;;18.70;51.20;;;;;;5082456;28;20179;-83
2022/02/20 10:55:41;;;;;;;2.72;1.40;;;18.70;50.70;;;;;;5082122;28;20157;-84
2022/02/20 10:58:10;;;;;;;4.63;1.45;;;18.80;50.70;;;;;;5065434;28;20160;-84
2022/02/20 11:00:37;;;;;;;1.83;1.38;;;18.80;50.90;;;;;;5100342;28;20157;-84
2022/02/20 11:03:07;;;;;;;3.72;1.50;;;18.80;50.50;;;;;;5099622;28;20167;-84
2022/02/20 11:05:34;;;;;;;3.53;1.90;;;18.70;50.80;;;;;;5083355;28;20168;-83
2022/02/20 11:08:00;;;;;;;1.35;1.20;;;18.70;50.60;;;;;;5082872;28;20164;-84
2022/02/20 11:10:25;;;;;;;2.15;1.33;;;18.70;50.10;;;;;;5098709;28;20183;-83
2022/02/20 11:12:52;;;;;;;2.10;1.50;;;18.70;50.50;;;;;;5082485;28;20163;-83
2022/02/20 11:15:19;;;;;;;1.42;1.30;;;18.70;50.00;;;;;;5117472;28;20248;-84
2022/02/20 11:17:45;;;;;;;3.47;1.73;;;18.80;50.30;;;;;;5101370;28;20483;-84
2022/02/20 11:20:11;;;;;;;1.60;1.45;;;18.70;50.50;;;;;;5067091;28;20167;-84
2022/02/20 11:22:39;;;;;;;1.30;1.20;;;18.70;50.10;;;;;;5100385;28;20152;-83
2022/02/20 11:25:06;;;;;;;2.13;1.45;;;18.70;50.20;;;;;;5064562;28;20665;-84
2022/02/20 11:27:33;;;;;;;2.30;1.40;;;18.70;49.70;;;;;;5082672;28;20158;-84
2022/02/20 11:29:58;;;;;;;3.03;1.25;;;18.70;49.50;;;;;;5099121;28;20160;-83
2022/02/20 11:32:24;;;;;;;1.70;1.30;;;18.80;49.40;;;;;;5098381;28;20160;-83
2022/02/20 11:34:50;;;;;;;2.58;1.40;;;18.80;49.80;;;;;;5098151;28;20220;-83
2022/02/20 11:37:16;;;;;;;3.85;1.50;;;18.80;49.30;;;;;;5081086;28;20246;-83
2022/02/20 11:39:58;;;;;;;3.25;1.30;;;18.80;49.60;;;;;;5097222;28;20195;-83
2022/02/20 11:42:24;;;;;;;1.20;1.10;;;18.80;49.40;;;;;;5081617;28;20191;-83
2022/02/20 11:44:52;;;;;;;2.72;1.30;;;18.80;49.00;;;;;;5081594;28;20162;-83
2022/02/20 11:47:38;;;;;;;1.40;1.30;;;18.80;49.10;;;;;;5098161;28;20160;-83
2022/02/20 11:50:31;;;;;;;2.22;1.30;;;18.90;49.00;;;;;;5080861;28;20207;-84
2022/02/20 11:52:58;;;;;;;1.77;1.30;;;18.90;48.60;;;;;;5096888;28;20574;-84
2022/02/20 11:55:27;;;;;;;1.58;1.30;;;18.90;49.00;;;;;;5080307;28;20192;-84
2022/02/20 11:58:21;;;;;;;2.70;1.20;;;18.90;48.70;;;;;;5064607;28;20183;-84
2022/02/20 12:01:05;;;;;;;3.08;1.40;;;18.90;48.20;;;;;;5114303;28;20219;-84
2022/02/20 12:03:33;;;;;;;1.42;1.33;;;18.90;48.80;;;;;;5096793;28;20657;-84
2022/02/20 12:06:22;;;;;;;2.50;1.50;;;18.90;48.50;;;;;;5080206;28;20214;-84
2022/02/20 12:08:57;;;;;;;2.22;1.40;;;18.90;48.30;;;;;;5083151;28;20193;-84
2022/02/20 12:11:32;;;;;;;4.85;1.20;;;18.90;48.30;;;;;;5080953;28;20605;-83
2022/02/20 12:14:00;;;;;;;1.48;1.30;;;18.90;48.00;;;;;;5079923;28;20195;-83
2022/02/20 12:16:30;;;;;;;2.15;1.35;;;18.90;48.20;;;;;;5096206;28;20525;-84
2022/02/20 12:19:16;;;;;;;1.42;1.30;;;18.90;47.90;;;;;;5080267;28;20152;-84
2022/02/20 12:21:57;;;;;;;2.33;1.40;;;18.90;48.00;;;;;;5096053;28;20187;-83
2022/02/20 12:24:44;;;;;;;1.20;1.10;;;18.90;47.80;;;;;;5095617;28;20255;-83
2022/02/20 12:27:15;;;;;;;1.30;1.20;;;18.90;47.80;;;;;;5068530;28;20566;-83
2022/02/20 12:29:48;;;;;;;1.40;1.30;;;18.90;47.90;;;;;;5079602;28;20190;-83
2022/02/20 12:32:18;;;;;;;2.33;1.30;;;18.90;48.30;;;;;;5080872;28;20156;-83
2022/02/20 12:34:46;;;;;;;1.35;1.20;;;18.90;47.60;;;;;;5079785;28;20303;-83
2022/02/20 12:37:13;;;;;;;1.90;1.50;;;18.90;48.30;;;;;;5079117;28;20552;-84
2022/02/20 12:39:39;;;;;;;3.53;1.50;;;18.90;47.90;;;;;;5095968;28;20152;-83
2022/02/20 12:42:05;;;;;;;2.75;1.40;;;18.90;48.10;;;;;;5062383;28;20198;-83
2022/02/20 12:44:31;;;;;;;1.30;1.20;;;19.00;47.20;;;;;;5079511;28;20239;-84
2022/02/20 12:46:57;;;;;;;2.30;1.52;;;19.00;47.10;;;;;;5080618;28;20160;-83
2022/02/20 12:49:23;;;;;;;1.80;1.35;;;19.00;47.80;;;;;;5068299;28;20160;-83